createdAt,value
2024-02-23T00:00:01.642Z,10.4
2024-02-23T00:01:01.745Z,10.4
2024-02-23T00:02:01.880Z,10.4
2024-02-23T00:03:01.522Z,10.4
2024-02-23T00:04:01.878Z,10.4
2024-02-23T00:05:02.057Z,10.4
2024-02-23T00:06:01.562Z,10.4
2024-02-23T00:07:01.860Z,10.4
2024-02-23T00:08:01.956Z,10.4
2024-02-23T00:09:01.610Z,10.4
2024-02-23T00:10:01.668Z,10.4
2024-02-23T00:11:02.545Z,10.4
2024-02-23T00:12:02.808Z,10.4
2024-02-23T00:14:02.087Z,10.4
2024-02-23T00:15:01.597Z,10.4
2024-02-23T00:16:01.660Z,10.4
2024-02-23T00:17:01.849Z,10.4
2024-02-23T00:18:01.787Z,10.4
2024-02-23T00:19:02.077Z,10.4
2024-02-23T00:20:01.829Z,10.3
2024-02-23T00:21:01.594Z,10.3
2024-02-23T00:22:01.874Z,10.3
2024-02-23T00:23:01.763Z,10.3
2024-02-23T00:24:01.619Z,10.3
2024-02-23T00:25:01.528Z,10.3
2024-02-23T00:26:01.848Z,10.3
2024-02-23T00:28:01.674Z,10.2
2024-02-23T00:29:01.750Z,10.2
2024-02-23T00:30:01.574Z,10.2
2024-02-23T00:31:01.631Z,10.2
2024-02-23T00:32:01.963Z,10.2
2024-02-23T00:33:02.048Z,10.2
2024-02-23T00:34:02.019Z,10.2
2024-02-23T00:36:01.568Z,10.2
2024-02-23T00:37:01.593Z,10.2
2024-02-23T00:38:01.888Z,10.1
2024-02-23T00:39:01.534Z,10.1
2024-02-23T00:40:01.578Z,10.1
2024-02-23T00:41:01.918Z,10.1
2024-02-23T00:42:01.566Z,10.1
2024-02-23T00:44:01.908Z,10.1
2024-02-23T00:45:01.587Z,10.1
2024-02-23T00:47:01.961Z,10.1
2024-02-23T00:48:02.090Z,10.1
2024-02-23T00:49:01.878Z,10.1
2024-02-23T00:50:02.043Z,10.1
2024-02-23T00:51:01.537Z,10.1
2024-02-23T00:52:01.606Z,10.1
2024-02-23T00:53:01.873Z,10.1
2024-02-23T00:54:01.579Z,10.1
2024-02-23T00:55:01.707Z,10.1
2024-02-23T00:56:01.934Z,10.1
2024-02-23T00:57:02.349Z,10.1
2024-02-23T00:58:01.552Z,10.1
2024-02-23T00:59:01.860Z,10.1
2024-02-23T01:00:01.626Z,10.1
2024-02-23T01:01:01.990Z,10.1
2024-02-23T01:02:01.754Z,10.1
2024-02-23T01:03:02.140Z,10.1
2024-02-23T01:04:01.468Z,10.1
2024-02-23T01:05:02.774Z,10.1
2024-02-23T01:07:01.709Z,10.1
2024-02-23T01:08:01.803Z,10.1
2024-02-23T01:10:01.864Z,10.1
2024-02-23T01:11:02.308Z,10.1
2024-02-23T01:12:03.127Z,10.1
2024-02-23T01:14:02.029Z,10.1
2024-02-23T01:15:07.116Z,10.2
2024-02-23T01:17:01.903Z,10.2
2024-02-23T01:18:02.001Z,10.2
2024-02-23T01:19:01.791Z,10.2
2024-02-23T01:20:02.731Z,10.3
2024-02-23T01:22:02.476Z,10.4
2024-02-23T01:23:01.487Z,10.4
2024-02-23T01:24:01.683Z,10.4
2024-02-23T01:25:01.573Z,10.4
2024-02-23T01:26:01.982Z,10.4
2024-02-23T01:27:01.602Z,10.4
2024-02-23T01:28:01.637Z,10.5
2024-02-23T01:29:01.957Z,10.5
2024-02-23T01:30:01.672Z,10.5
2024-02-23T01:31:01.640Z,10.4
2024-02-23T01:32:01.983Z,10.4
2024-02-23T01:33:02.356Z,10.4
2024-02-23T01:36:01.757Z,10.4
2024-02-23T01:37:01.513Z,10.4
2024-02-23T01:38:01.965Z,10.3
2024-02-23T01:39:01.586Z,10.3
2024-02-23T01:40:01.662Z,10.3
2024-02-23T01:41:01.904Z,10.3
2024-02-23T01:42:01.591Z,10.3
2024-02-23T01:43:04.137Z,10.3
2024-02-23T01:45:01.933Z,10.3
2024-02-23T01:46:01.536Z,10.3
2024-02-23T01:47:02.024Z,10.2
2024-02-23T01:48:02.797Z,10.2
2024-02-23T01:50:02.476Z,10.2
2024-02-23T01:52:01.611Z,10.2
2024-02-23T01:53:01.828Z,10.2
2024-02-23T01:54:01.626Z,10.2
2024-02-23T01:55:01.689Z,10.2
2024-02-23T01:56:02.002Z,10.3
2024-02-23T01:57:51.161Z,10.3
2024-02-23T01:59:02.062Z,10.3
2024-02-23T02:00:01.690Z,10.3
2024-02-23T02:01:01.969Z,10.3
2024-02-23T02:02:01.670Z,10.3
2024-02-23T02:03:01.548Z,10.3
2024-02-23T02:04:01.901Z,10.3
2024-02-23T02:05:02.143Z,10.3
2024-02-23T02:06:01.534Z,10.3
2024-02-23T02:07:01.890Z,10.4
2024-02-23T02:08:02.511Z,10.4
2024-02-23T02:09:01.470Z,10.4
2024-02-23T02:10:01.635Z,10.4
2024-02-23T02:11:02.438Z,10.4
2024-02-23T02:12:02.375Z,10.4
2024-02-23T02:13:01.526Z,10.3
2024-02-23T02:14:02.136Z,10.2
2024-02-23T02:15:01.545Z,10.2
2024-02-23T02:16:01.785Z,10.1
2024-02-23T02:19:01.995Z,10
2024-02-23T02:20:02.210Z,9.9
2024-02-23T02:22:01.611Z,9.9
2024-02-23T02:23:02.197Z,9.9
2024-02-23T02:24:01.687Z,9.9
2024-02-23T02:25:01.764Z,9.9
2024-02-23T02:26:02.163Z,9.9
2024-02-23T02:28:01.588Z,9.9
2024-02-23T02:29:01.897Z,9.9
2024-02-23T02:31:01.591Z,9.8
2024-02-23T02:32:01.902Z,9.8
2024-02-23T02:33:01.920Z,9.8
2024-02-23T02:34:01.903Z,9.8
2024-02-23T02:35:02.175Z,9.7
2024-02-23T02:37:01.570Z,9.6
2024-02-23T02:38:01.840Z,9.6
2024-02-23T02:40:01.735Z,9.6
2024-02-23T02:41:01.945Z,9.6
2024-02-23T02:42:01.539Z,9.6
2024-02-23T02:43:01.693Z,9.7
2024-02-23T02:44:01.823Z,9.7
2024-02-23T02:45:02.899Z,9.7
2024-02-23T02:47:01.763Z,9.6
2024-02-23T02:48:02.069Z,9.6
2024-02-23T02:49:01.825Z,9.6
2024-02-23T02:50:02.041Z,9.6
2024-02-23T02:52:01.632Z,9.5
2024-02-23T02:53:01.916Z,9.5
2024-02-23T02:54:01.670Z,9.4
2024-02-23T02:55:01.589Z,9.4
2024-02-23T02:56:01.971Z,9.4
2024-02-23T02:57:01.533Z,9.4
2024-02-23T02:58:01.679Z,9.4
2024-02-23T02:59:01.776Z,9.4
2024-02-23T03:00:01.595Z,9.4
2024-02-23T03:01:01.924Z,9.4
2024-02-23T03:02:01.709Z,9.4
2024-02-23T03:03:01.569Z,9.4
2024-02-23T03:04:02.054Z,9.4
2024-02-23T03:05:01.880Z,9.4
2024-02-23T03:06:02.246Z,9.4
2024-02-23T03:07:01.509Z,9.4
2024-02-23T03:08:02.210Z,9.4
2024-02-23T03:10:01.752Z,9.4
2024-02-23T03:11:01.988Z,9.4
2024-02-23T03:12:02.238Z,9.4
2024-02-23T03:13:01.512Z,9.4
2024-02-23T03:14:01.978Z,9.4
2024-02-23T03:16:01.781Z,9.4
2024-02-23T03:17:01.894Z,9.4
2024-02-23T03:18:01.777Z,9.4
2024-02-23T03:19:02.056Z,9.4
2024-02-23T03:20:03.112Z,9.4
2024-02-23T03:22:01.605Z,9.4
2024-02-23T03:23:01.798Z,9.3
2024-02-23T03:24:01.603Z,9.3
2024-02-23T03:25:01.580Z,9.2
2024-02-23T03:26:02.278Z,9.2
2024-02-23T03:27:03.158Z,9.1
2024-02-23T03:29:01.897Z,9
2024-02-23T03:30:01.496Z,9
2024-02-23T03:31:01.596Z,8.9
2024-02-23T03:32:01.836Z,8.9
2024-02-23T03:33:02.055Z,8.9
2024-02-23T03:34:01.866Z,8.8
2024-02-23T03:35:02.103Z,8.8
2024-02-23T03:36:01.559Z,8.8
2024-02-23T03:37:01.631Z,8.7
2024-02-23T03:38:02.171Z,8.7
2024-02-23T03:40:01.659Z,8.6
2024-02-23T03:41:01.905Z,8.5
2024-02-23T03:42:01.599Z,8.5
2024-02-23T03:43:02.895Z,8.4
2024-02-23T03:45:01.677Z,8.4
2024-02-23T03:46:01.674Z,8.3
2024-02-23T03:47:01.952Z,8.3
2024-02-23T03:48:02.030Z,8.2
2024-02-23T03:49:01.684Z,8.2
2024-02-23T03:50:02.055Z,8.2
2024-02-23T03:51:01.535Z,8.2
2024-02-23T03:52:01.628Z,8.2
2024-02-23T03:53:01.800Z,8.2
2024-02-23T03:55:01.686Z,8.2
2024-02-23T03:56:02.173Z,8.2
2024-02-23T03:57:01.508Z,8.2
2024-02-23T03:58:01.693Z,8.2
2024-02-23T03:59:01.849Z,8.2
2024-02-23T04:00:01.532Z,8.2
2024-02-23T04:01:02.096Z,8.3
2024-02-23T04:02:01.665Z,8.4
2024-02-23T04:04:02.001Z,8.4
2024-02-23T04:05:02.166Z,8.4
2024-02-23T04:06:01.592Z,8.5
2024-02-23T04:07:01.833Z,8.4
2024-02-23T04:08:01.857Z,8.4
2024-02-23T04:10:01.626Z,8.4
2024-02-23T04:11:02.047Z,8.3
2024-02-23T04:12:03.067Z,8.2
2024-02-23T04:13:01.472Z,8.2
2024-02-23T04:14:02.467Z,8.1
2024-02-23T04:15:01.510Z,8.1
2024-02-23T04:16:01.631Z,8
2024-02-23T04:17:01.825Z,8
2024-02-23T04:18:01.930Z,8
2024-02-23T04:19:01.942Z,7.9
2024-02-23T04:20:02.103Z,7.9
2024-02-23T04:22:01.629Z,7.9
2024-02-23T04:23:01.912Z,7.8
2024-02-23T04:24:01.563Z,7.8
2024-02-23T04:25:01.697Z,7.8
2024-02-23T04:26:01.898Z,7.8
2024-02-23T04:27:01.852Z,7.8
2024-02-23T04:28:01.550Z,7.7
2024-02-23T04:29:01.816Z,7.7
2024-02-23T04:31:01.582Z,7.6
2024-02-23T04:32:01.746Z,7.6
2024-02-23T04:33:01.903Z,7.5
2024-02-23T04:34:01.971Z,7.6
2024-02-23T04:35:01.788Z,7.6
2024-02-23T04:37:01.626Z,7.6
2024-02-23T04:38:01.767Z,7.7
2024-02-23T04:39:01.600Z,7.8
2024-02-23T04:40:01.792Z,7.8
2024-02-23T04:42:01.629Z,7.9
2024-02-23T04:43:01.581Z,8
2024-02-23T04:44:04.637Z,8
2024-02-23T04:46:01.548Z,8.1
2024-02-23T04:47:01.831Z,8.1
2024-02-23T04:48:01.950Z,8.1
2024-02-23T04:49:01.911Z,8.1
2024-02-23T04:50:02.125Z,8.1
2024-02-23T04:51:01.524Z,8.1
2024-02-23T04:52:01.620Z,8.1
2024-02-23T04:53:01.924Z,8
2024-02-23T04:55:01.726Z,7.9
2024-02-23T04:56:01.940Z,7.9
2024-02-23T04:57:01.499Z,7.9
2024-02-23T04:58:01.632Z,7.9
2024-02-23T04:59:01.998Z,7.8
2024-02-23T05:01:02.205Z,7.8
2024-02-23T05:03:01.796Z,7.8
2024-02-23T05:04:02.055Z,7.8
2024-02-23T05:05:02.048Z,7.9
2024-02-23T05:06:01.875Z,7.9
2024-02-23T05:07:01.549Z,7.9
2024-02-23T05:08:01.929Z,7.9
2024-02-23T05:10:01.578Z,7.9
2024-02-23T05:11:02.340Z,7.9
2024-02-23T05:12:03.279Z,8
2024-02-23T05:13:01.459Z,8
2024-02-23T05:14:01.956Z,8
2024-02-23T05:15:01.515Z,8.1
2024-02-23T05:16:01.653Z,8.1
2024-02-23T05:17:01.787Z,8.1
2024-02-23T05:18:01.903Z,8.1
2024-02-23T05:19:01.762Z,8.1
2024-02-23T05:20:02.266Z,8.1
2024-02-23T05:21:01.545Z,8.1
2024-02-23T05:22:01.629Z,8.1
2024-02-23T05:23:01.797Z,8.1
2024-02-23T05:24:01.542Z,8.1
2024-02-23T05:25:01.628Z,8.1
2024-02-23T05:26:01.674Z,8.1
2024-02-23T05:27:01.830Z,8.1
2024-02-23T05:28:01.599Z,8
2024-02-23T05:29:02.065Z,8
2024-02-23T05:31:01.884Z,7.9
2024-02-23T05:32:01.825Z,7.8
2024-02-23T05:33:01.807Z,7.8
2024-02-23T05:34:02.076Z,7.7
2024-02-23T05:35:01.963Z,7.6
2024-02-23T05:36:01.497Z,7.6
2024-02-23T05:37:01.588Z,7.5
2024-02-23T05:38:01.854Z,7.4
2024-02-23T05:40:02.448Z,7.4
2024-02-23T05:41:01.760Z,7.4
2024-02-23T05:42:01.962Z,7.3
2024-02-23T05:43:01.660Z,7.2
2024-02-23T05:44:01.865Z,7.2
2024-02-23T05:45:01.567Z,7.2
2024-02-23T05:46:01.625Z,7.2
2024-02-23T05:47:01.998Z,7.2
2024-02-23T05:48:02.960Z,7.2
2024-02-23T05:51:01.557Z,7.2
2024-02-23T05:52:01.579Z,7.2
2024-02-23T05:53:01.929Z,7.2
2024-02-23T05:54:01.536Z,7.2
2024-02-23T05:55:01.670Z,7.2
2024-02-23T05:56:01.667Z,7.2
2024-02-23T05:57:01.542Z,7.2
2024-02-23T05:58:01.612Z,7.2
2024-02-23T05:59:01.805Z,7.2
2024-02-23T06:00:01.662Z,7.2
2024-02-23T06:01:01.738Z,7.2
2024-02-23T06:02:01.876Z,7.2
2024-02-23T06:03:01.539Z,7.2
2024-02-23T06:04:01.562Z,7.2
2024-02-23T06:05:02.754Z,7.2
2024-02-23T06:06:02.464Z,7.2
2024-02-23T06:07:03.240Z,7.2
2024-02-23T06:09:01.600Z,7.2
2024-02-23T06:10:01.664Z,7.2
2024-02-23T06:11:02.372Z,7.2
2024-02-23T06:12:02.158Z,7.2
2024-02-23T06:13:05.837Z,7.2
2024-02-23T06:15:01.684Z,7.2
2024-02-23T06:16:01.588Z,7.2
2024-02-23T06:17:01.767Z,7.2
2024-02-23T06:18:01.926Z,7.1
2024-02-23T06:19:01.885Z,7.1
2024-02-23T06:20:08.408Z,7.1
2024-02-23T06:22:01.553Z,7.2
2024-02-23T06:23:02.002Z,7.1
2024-02-23T06:25:01.614Z,7.2
2024-02-23T06:26:02.176Z,7.2
2024-02-23T06:28:01.610Z,7.3
2024-02-23T06:29:02.341Z,7.3
2024-02-23T06:30:01.537Z,7.3
2024-02-23T06:31:01.613Z,7.4
2024-02-23T06:32:02.155Z,7.4
2024-02-23T06:33:02.884Z,7.4
2024-02-23T06:35:03.126Z,7.4
2024-02-23T06:37:01.620Z,7.5
2024-02-23T06:38:01.871Z,7.6
2024-02-23T06:39:01.544Z,7.6
2024-02-23T06:40:01.596Z,7.7
2024-02-23T06:41:02.407Z,7.8
2024-02-23T06:43:01.686Z,7.9
2024-02-23T06:44:01.726Z,7.9
2024-02-23T06:45:01.543Z,8
2024-02-23T06:46:01.595Z,8.1
2024-02-23T06:47:01.782Z,8.1
2024-02-23T06:48:01.951Z,8.2
2024-02-23T06:49:02.659Z,8.2
2024-02-23T06:50:01.938Z,8.4
2024-02-23T06:51:01.528Z,8.4
2024-02-23T06:52:01.571Z,8.4
2024-02-23T06:53:01.777Z,8.5
2024-02-23T06:54:01.523Z,8.5
2024-02-23T06:55:01.604Z,8.6
2024-02-23T06:56:02.128Z,8.6
2024-02-23T06:57:01.516Z,8.6
2024-02-23T06:58:01.653Z,8.7
2024-02-23T06:59:01.719Z,8.7
2024-02-23T07:00:01.573Z,8.7
2024-02-23T07:01:01.953Z,8.7
2024-02-23T07:02:02.094Z,8.8
2024-02-23T07:03:01.624Z,8.8
2024-02-23T07:04:02.019Z,8.8
2024-02-23T07:05:01.907Z,8.9
2024-02-23T07:06:02.079Z,8.9
2024-02-23T07:07:01.588Z,8.9
2024-02-23T07:08:02.195Z,9
2024-02-23T07:10:01.623Z,9.1
2024-02-23T07:11:02.434Z,9.2
2024-02-23T07:12:02.298Z,9.2
2024-02-23T07:13:07.701Z,9.3
2024-02-23T07:15:01.678Z,9.4
2024-02-23T07:16:01.610Z,9.4
2024-02-23T07:17:01.935Z,9.4
2024-02-23T07:18:01.954Z,9.4
2024-02-23T07:19:01.964Z,9.4
2024-02-23T07:20:01.869Z,9.4
2024-02-23T07:21:01.560Z,9.3
2024-02-23T07:22:01.595Z,9.3
2024-02-23T07:23:01.873Z,9.3
2024-02-23T07:24:01.542Z,9.4
2024-02-23T07:25:01.574Z,9.4
2024-02-23T07:26:01.896Z,9.4
2024-02-23T07:28:01.577Z,9.4
2024-02-23T07:29:01.960Z,9.4
2024-02-23T07:30:01.597Z,9.4
2024-02-23T07:31:01.878Z,9.4
2024-02-23T07:32:01.895Z,9.4
2024-02-23T07:33:02.389Z,9.3
2024-02-23T07:34:03.390Z,9.3
2024-02-23T07:35:01.564Z,9.3
2024-02-23T07:36:01.614Z,9.3
2024-02-23T07:37:01.676Z,9.4
2024-02-23T07:38:01.868Z,9.4
2024-02-23T07:40:01.750Z,9.7
2024-02-23T07:41:01.927Z,9.8
2024-02-23T07:42:01.569Z,9.9
2024-02-23T07:43:01.665Z,9.9
2024-02-23T07:44:01.994Z,9.9
2024-02-23T07:45:01.551Z,10
2024-02-23T07:46:01.624Z,10.1
2024-02-23T07:47:01.880Z,10.1
2024-02-23T07:48:02.193Z,10.2
2024-02-23T07:49:02.042Z,10.3
2024-02-23T07:51:01.593Z,10.4
2024-02-23T07:52:01.928Z,10.6
2024-02-23T07:53:01.777Z,10.6
2024-02-23T07:54:01.524Z,10.6
2024-02-23T07:55:01.823Z,10.7
2024-02-23T07:56:01.877Z,10.7
2024-02-23T07:57:01.574Z,10.8
2024-02-23T07:58:01.578Z,10.8
2024-02-23T07:59:01.870Z,10.9
2024-02-23T08:00:02.123Z,10.9
2024-02-23T08:02:02.000Z,11
2024-02-23T08:03:01.788Z,11
2024-02-23T08:05:02.928Z,11.1
2024-02-23T08:06:05.752Z,11.1
2024-02-23T08:08:02.726Z,11.2
2024-02-23T08:10:01.621Z,11.4
2024-02-23T08:11:02.585Z,11.5
2024-02-23T08:12:02.089Z,11.7
2024-02-23T08:14:01.979Z,11.9
2024-02-23T08:15:01.673Z,12.1
2024-02-23T08:17:02.283Z,12.1
2024-02-23T08:18:01.679Z,12.1
2024-02-23T08:19:01.893Z,12.2
2024-02-23T08:20:02.978Z,12.2
2024-02-23T08:22:01.697Z,12.6
2024-02-23T08:23:02.234Z,12.6
2024-02-23T08:24:01.596Z,12.7
2024-02-23T08:25:01.649Z,12.8
2024-02-23T08:26:01.971Z,12.8
2024-02-23T08:27:01.584Z,12.9
2024-02-23T08:28:01.616Z,12.9
2024-02-23T08:29:02.210Z,12.9
2024-02-23T08:30:01.675Z,13.1
2024-02-23T08:31:01.555Z,13.2
2024-02-23T08:32:02.039Z,13.3
2024-02-23T08:33:02.255Z,13.4
2024-02-23T08:34:01.758Z,13.4
2024-02-23T08:35:02.837Z,13.6
2024-02-23T08:37:01.661Z,14.6
2024-02-23T08:38:01.822Z,15
2024-02-23T08:39:01.930Z,15.3
2024-02-23T08:40:01.572Z,16.9
2024-02-23T08:41:01.980Z,18
2024-02-23T08:43:01.573Z,20
2024-02-23T08:44:01.750Z,20.5
2024-02-23T08:46:11.440Z,19.2
2024-02-23T08:48:01.903Z,18.2
2024-02-23T08:49:02.233Z,18.5
2024-02-23T08:50:01.792Z,18.3
2024-02-23T08:51:01.561Z,19.6
2024-02-23T08:52:01.659Z,20.5
2024-02-23T08:53:01.821Z,19.9
2024-02-23T08:54:02.393Z,20.2
2024-02-23T08:56:02.161Z,19.1
2024-02-23T08:57:02.622Z,19.1
2024-02-23T08:59:01.904Z,19.4
2024-02-23T09:01:01.909Z,19.4
2024-02-23T09:02:01.750Z,18.6
2024-02-23T09:03:01.594Z,18.8
2024-02-23T09:04:01.684Z,18.9
2024-02-23T09:05:02.989Z,19.2
2024-02-23T09:06:03.830Z,19.9
2024-02-23T09:07:01.565Z,20.6
2024-02-23T09:08:01.982Z,20.8
2024-02-23T09:10:01.633Z,22
2024-02-23T09:11:02.328Z,22.8
2024-02-23T09:12:02.534Z,22.6
2024-02-23T09:14:02.305Z,23.3
2024-02-23T09:15:01.488Z,22.9
2024-02-23T09:16:01.978Z,22.9
2024-02-23T09:17:01.796Z,22.9
2024-02-23T09:18:01.919Z,22.4
2024-02-23T09:19:02.021Z,22.1
2024-02-23T09:20:02.266Z,22
2024-02-23T09:21:01.605Z,21
2024-02-23T09:22:01.640Z,21.5
2024-02-23T09:23:01.751Z,21.9
2024-02-23T09:24:01.590Z,21.2
2024-02-23T09:25:01.564Z,20.8
2024-02-23T09:26:02.751Z,21.1
2024-02-23T09:28:01.572Z,22.2
2024-02-23T09:29:02.103Z,22
2024-02-23T09:30:02.753Z,20.9
2024-02-23T09:32:01.882Z,18.8
2024-02-23T09:33:02.421Z,18.6
2024-02-23T09:34:02.796Z,18.2
2024-02-23T09:35:01.640Z,18.4
2024-02-23T09:36:01.802Z,18.1
2024-02-23T09:37:01.593Z,18.2
2024-02-23T09:38:01.936Z,17.9
2024-02-23T09:39:01.550Z,18
2024-02-23T09:40:01.956Z,18.1
2024-02-23T09:41:01.755Z,18.9
2024-02-23T09:42:01.589Z,20.1
2024-02-23T09:43:01.541Z,21.1
2024-02-23T09:44:01.930Z,21.6
2024-02-23T09:45:02.175Z,22.1
2024-02-23T09:47:01.865Z,23.2
2024-02-23T09:48:02.714Z,23.8
2024-02-23T09:49:02.166Z,23.8
2024-02-23T09:50:01.981Z,24
2024-02-23T09:51:01.610Z,23.1
2024-02-23T09:52:01.602Z,22.6
2024-02-23T09:53:02.766Z,22.6
2024-02-23T09:55:01.714Z,22.9
2024-02-23T09:56:01.857Z,23.6
2024-02-23T09:58:01.803Z,24.7
2024-02-23T09:59:02.150Z,25
2024-02-23T10:01:01.912Z,24.6
2024-02-23T10:02:02.036Z,25.1
2024-02-23T10:03:01.599Z,25.6
2024-02-23T10:04:02.201Z,26
2024-02-23T10:05:01.902Z,26
2024-02-23T10:06:02.612Z,26.4
2024-02-23T10:07:02.122Z,26.8
2024-02-23T10:08:02.966Z,26.9
2024-02-23T10:09:02.379Z,27
2024-02-23T10:11:02.474Z,27.1
2024-02-23T10:12:02.616Z,27.2
2024-02-23T10:13:01.473Z,26.6
2024-02-23T10:14:01.795Z,26.8
2024-02-23T10:16:17.298Z,26.8
2024-02-23T10:18:03.116Z,26
2024-02-23T10:20:01.920Z,26.6
2024-02-23T10:21:01.595Z,26.7
2024-02-23T10:22:01.553Z,26.8
2024-02-23T10:23:01.703Z,26.8
2024-02-23T10:24:01.595Z,26.9
2024-02-23T10:25:02.061Z,27
2024-02-23T10:26:01.696Z,26.5
2024-02-23T10:27:01.675Z,26.2
2024-02-23T10:28:01.600Z,26.1
2024-02-23T10:29:01.808Z,25.8
2024-02-23T10:30:02.165Z,25.9
2024-02-23T10:31:01.728Z,26
2024-02-23T10:32:01.970Z,26
2024-02-23T10:33:02.218Z,26
2024-02-23T10:35:02.778Z,26
2024-02-23T10:38:01.833Z,26
2024-02-23T10:39:01.722Z,26
2024-02-23T10:40:02.040Z,26
2024-02-23T10:41:01.847Z,26.1
2024-02-23T10:42:01.691Z,26.1
2024-02-23T10:43:01.594Z,26.1
2024-02-23T10:44:02.027Z,26.1
2024-02-23T10:45:01.643Z,26.1
2024-02-23T10:46:01.513Z,25.9
2024-02-23T10:47:02.566Z,25.8
2024-02-23T10:48:02.349Z,25.6
2024-02-23T10:49:02.478Z,25.4
2024-02-23T10:51:01.625Z,25.2
2024-02-23T10:52:01.843Z,25.2
2024-02-23T10:53:01.716Z,25.2
2024-02-23T10:55:01.624Z,25.2
2024-02-23T10:56:01.940Z,25.2
2024-02-23T10:57:01.540Z,25.2
2024-02-23T10:58:01.705Z,25.2
2024-02-23T10:59:01.850Z,25.3
2024-02-23T11:00:01.826Z,25.4
2024-02-23T11:01:02.040Z,25.4
2024-02-23T11:02:02.230Z,25.4
2024-02-23T11:03:01.522Z,25.5
2024-02-23T11:04:01.614Z,25.6
2024-02-23T11:05:02.938Z,25.6
2024-02-23T11:06:02.136Z,25.7
2024-02-23T11:08:01.831Z,25.9
2024-02-23T11:09:01.555Z,26
2024-02-23T11:10:01.688Z,26.1
2024-02-23T11:11:02.206Z,26.2
2024-02-23T11:12:02.736Z,26.2
2024-02-23T11:14:01.964Z,26.2
2024-02-23T11:15:02.003Z,26.3
2024-02-23T11:17:02.120Z,26.4
2024-02-23T11:18:02.344Z,26.3
2024-02-23T11:19:01.651Z,26.6
2024-02-23T11:20:02.906Z,26.8
2024-02-23T11:22:01.727Z,27.2
2024-02-23T11:23:02.106Z,27.4
2024-02-23T11:24:01.524Z,27.6
2024-02-23T11:25:01.703Z,26.4
2024-02-23T11:26:01.822Z,25.9
2024-02-23T11:27:01.553Z,25.2
2024-02-23T11:28:01.656Z,23.9
2024-02-23T11:29:01.718Z,24.2
2024-02-23T11:31:01.618Z,21.4
2024-02-23T11:32:02.103Z,20.4
2024-02-23T11:33:02.265Z,19.8
2024-02-23T11:34:01.886Z,19.4
2024-02-23T11:35:02.176Z,19
2024-02-23T11:36:01.494Z,18.6
2024-02-23T11:37:01.683Z,18.1
2024-02-23T11:38:02.408Z,17.7
2024-02-23T11:40:01.704Z,16.8
2024-02-23T11:41:01.809Z,16.5
2024-02-23T11:42:01.644Z,16.2
2024-02-23T11:43:02.019Z,16.7
2024-02-23T11:44:02.013Z,16.2
2024-02-23T11:46:01.661Z,16
2024-02-23T11:47:02.065Z,15.7
2024-02-23T11:48:03.434Z,16.4
2024-02-23T11:49:01.627Z,16.5
2024-02-23T11:50:01.981Z,15.8
2024-02-23T11:51:01.614Z,15.2
2024-02-23T11:52:01.949Z,15.1
2024-02-23T11:53:01.902Z,15.2
2024-02-23T11:54:01.637Z,15.2
2024-02-23T11:55:01.746Z,15.1
2024-02-23T11:56:01.979Z,15.1
2024-02-23T11:57:01.520Z,14.9
2024-02-23T11:58:20.220Z,14.8
2024-02-23T12:00:01.590Z,14.6
2024-02-23T12:01:01.932Z,14.5
2024-02-23T12:02:07.363Z,14.4
2024-02-23T12:04:02.157Z,14.5
2024-02-23T12:05:02.822Z,14.5
2024-02-23T12:06:02.172Z,14.6
2024-02-23T12:07:01.726Z,14.7
2024-02-23T12:08:01.971Z,14.7
2024-02-23T12:09:01.566Z,14.6
2024-02-23T12:11:02.708Z,14.7
2024-02-23T12:14:02.476Z,14.6
2024-02-23T12:16:01.577Z,14.7
2024-02-23T12:17:02.037Z,14.8
2024-02-23T12:18:02.135Z,14.9
2024-02-23T12:19:01.586Z,15.3
2024-02-23T12:20:03.289Z,16.1
2024-02-23T12:21:01.681Z,16
2024-02-23T12:22:01.915Z,16
2024-02-23T12:24:01.598Z,16.1
2024-02-23T12:25:01.592Z,16.2
2024-02-23T12:26:01.963Z,16.4
2024-02-23T12:27:01.581Z,16.4
2024-02-23T12:28:01.588Z,16.2
2024-02-23T12:29:01.723Z,17.9
2024-02-23T12:30:01.698Z,18.3
2024-02-23T12:31:01.552Z,18.1
2024-02-23T12:32:03.509Z,17.4
2024-02-23T12:34:02.697Z,16.7
2024-02-23T12:35:01.704Z,16.6
2024-02-23T12:36:01.706Z,16.6
2024-02-23T12:37:01.545Z,16.2
2024-02-23T12:38:01.803Z,16
2024-02-23T12:40:01.575Z,15.7
2024-02-23T12:41:02.125Z,15.6
2024-02-23T12:43:01.553Z,15.8
2024-02-23T12:44:02.156Z,15.9
2024-02-23T12:45:01.532Z,16.3
2024-02-23T12:46:01.610Z,16.8
2024-02-23T12:47:01.935Z,16.9
2024-02-23T12:48:02.415Z,16.8
2024-02-23T12:50:02.035Z,16.9
2024-02-23T12:51:01.694Z,17.2
2024-02-23T12:53:02.001Z,17.7
2024-02-23T12:54:01.504Z,17.2
2024-02-23T12:55:01.624Z,16.8
2024-02-23T12:56:01.860Z,16.5
2024-02-23T12:58:01.577Z,16.1
2024-02-23T12:59:02.032Z,16.1
2024-02-23T13:00:01.602Z,16
2024-02-23T13:01:01.898Z,15.9
2024-02-23T13:02:02.283Z,15.8
2024-02-23T13:04:02.135Z,15.6
2024-02-23T13:05:02.204Z,15.6
2024-02-23T13:06:01.507Z,15.6
2024-02-23T13:07:02.433Z,15.6
2024-02-23T13:09:01.917Z,15.8
2024-02-23T13:10:01.532Z,16
2024-02-23T13:11:02.438Z,16.1
2024-02-23T13:12:02.690Z,17.8
2024-02-23T13:14:01.912Z,21.2
2024-02-23T13:16:01.675Z,19.4
2024-02-23T13:17:01.807Z,18.9
2024-02-23T13:18:01.854Z,20.6
2024-02-23T13:19:01.940Z,21.8
2024-02-23T13:20:13.809Z,22.4
2024-02-23T13:22:01.581Z,22.5
2024-02-23T13:23:01.841Z,23.1
2024-02-23T13:24:01.506Z,23.3
2024-02-23T13:25:01.631Z,23.6
2024-02-23T13:26:01.951Z,23.8
2024-02-23T13:27:01.566Z,24
2024-02-23T13:28:01.644Z,24.1
2024-02-23T13:29:01.938Z,24.2
2024-02-23T13:30:01.579Z,24.4
2024-02-23T13:31:01.591Z,23.5
2024-02-23T13:32:01.895Z,23.9
2024-02-23T13:33:03.103Z,24.2
2024-02-23T13:34:02.250Z,24.1
2024-02-23T13:35:02.317Z,21.9
2024-02-23T13:37:01.605Z,21.4
2024-02-23T13:38:02.065Z,20.1
2024-02-23T13:39:02.468Z,19.1
2024-02-23T13:40:01.511Z,18.6
2024-02-23T13:41:01.890Z,18.1
2024-02-23T13:42:01.511Z,17.6
2024-02-23T13:43:01.800Z,17.2
2024-02-23T13:44:01.925Z,17.4
2024-02-23T13:45:02.423Z,17.2
2024-02-23T13:46:01.472Z,16.9
2024-02-23T13:47:01.839Z,16.6
2024-02-23T13:48:03.624Z,16.3
2024-02-23T13:50:02.146Z,16.1
2024-02-23T13:51:01.790Z,15.9
2024-02-23T13:52:01.625Z,15.9
2024-02-23T13:53:01.868Z,15.9
2024-02-23T13:54:01.482Z,15.9
2024-02-23T13:55:01.983Z,16
2024-02-23T13:56:01.811Z,16.2
2024-02-23T13:57:01.589Z,16.4
2024-02-23T13:58:01.600Z,16.4
2024-02-23T13:59:02.329Z,16.3
2024-02-23T14:01:02.326Z,16.2
2024-02-23T14:02:01.876Z,16.1
2024-02-23T14:03:02.378Z,16.1
2024-02-23T14:04:02.370Z,16.4
2024-02-23T14:05:02.175Z,16.3
2024-02-23T14:06:02.077Z,16.2
2024-02-23T14:07:01.871Z,16.2
2024-02-23T14:08:01.721Z,17
2024-02-23T14:09:01.543Z,17.6
2024-02-23T14:10:01.706Z,16.9
2024-02-23T14:11:02.122Z,16.9
2024-02-23T14:12:02.645Z,17.1
2024-02-23T14:14:01.967Z,19.3
2024-02-23T14:17:01.821Z,19.8
2024-02-23T14:18:02.318Z,18.6
2024-02-23T14:19:01.585Z,17.8
2024-02-23T14:20:03.033Z,17.3
2024-02-23T14:21:01.709Z,17.2
2024-02-23T14:23:02.057Z,16.9
2024-02-23T14:25:01.894Z,16.9
2024-02-23T14:26:02.017Z,16.6
2024-02-23T14:27:01.499Z,16.4
2024-02-23T14:28:01.599Z,16.3
2024-02-23T14:29:02.075Z,16.8
2024-02-23T14:32:01.867Z,16.6
2024-02-23T14:33:02.406Z,16.3
2024-02-23T14:34:02.482Z,17.1
2024-02-23T14:35:03.460Z,17.4
2024-02-23T14:37:01.623Z,17.4
2024-02-23T14:38:02.344Z,18.9
2024-02-23T14:39:02.149Z,19.7
2024-02-23T14:40:01.546Z,19.2
2024-02-23T14:41:01.994Z,18.9
2024-02-23T14:42:01.808Z,17.9
2024-02-23T14:43:01.591Z,18.1
2024-02-23T14:44:02.146Z,17.3
2024-02-23T14:46:01.876Z,16.4
2024-02-23T14:47:01.819Z,16.1
2024-02-23T14:48:02.286Z,15.8
2024-02-23T14:50:03.161Z,15.2
2024-02-23T14:51:01.864Z,15.1
2024-02-23T14:53:02.002Z,14.8
2024-02-23T14:54:01.516Z,14.7
2024-02-23T14:55:01.569Z,14.6
2024-02-23T14:56:01.858Z,14.4
2024-02-23T14:57:01.621Z,14.4
2024-02-23T14:58:01.616Z,14.2
2024-02-23T14:59:01.812Z,14.2
2024-02-23T15:00:01.737Z,14.2
2024-02-23T15:01:02.122Z,14.1
2024-02-23T15:02:01.641Z,14.1
2024-02-23T15:03:01.659Z,14.1
2024-02-23T15:04:01.593Z,14
2024-02-23T15:05:03.279Z,13.9
2024-02-23T15:06:01.590Z,13.9
2024-02-23T15:07:01.918Z,13.9
2024-02-23T15:08:01.831Z,13.8
2024-02-23T15:10:01.623Z,13.6
2024-02-23T15:11:02.512Z,13.6
2024-02-23T15:12:02.336Z,13.6
2024-02-23T15:14:01.952Z,13.5
2024-02-23T15:15:01.511Z,13.4
2024-02-23T15:16:01.570Z,13.4
2024-02-23T15:17:01.809Z,13.3
2024-02-23T15:18:02.455Z,13.2
2024-02-23T15:19:01.591Z,13.2
2024-02-23T15:20:03.084Z,13.1
2024-02-23T15:22:01.631Z,13
2024-02-23T15:23:01.878Z,13
2024-02-23T15:24:02.040Z,13
2024-02-23T15:25:02.310Z,12.9
2024-02-23T15:26:13.426Z,12.9
2024-02-23T15:28:01.956Z,12.9
2024-02-23T15:29:02.009Z,12.9
2024-02-23T15:30:01.843Z,12.9
2024-02-23T15:32:01.932Z,12.8
2024-02-23T15:33:03.059Z,12.8
2024-02-23T15:34:02.729Z,12.8
2024-02-23T15:36:01.629Z,12.7
2024-02-23T15:37:01.550Z,12.7
2024-02-23T15:38:01.894Z,12.6
2024-02-23T15:39:07.741Z,12.6
2024-02-23T15:41:01.884Z,12.6
2024-02-23T15:42:01.503Z,12.6
2024-02-23T15:43:05.616Z,12.6
2024-02-23T15:45:01.602Z,12.6
2024-02-23T15:46:01.655Z,12.6
2024-02-23T15:47:02.056Z,12.6
2024-02-23T15:48:02.221Z,12.6
2024-02-23T15:53:03.017Z,12.5